Time;durP1;ratioP1;P1;durP2;ratioP2;P2;SDS_P1;SDS_P2;PMS_P1;PMS_P2;Temp;Humidity;BMP_temperature;BMP_pressure;BME280_temperature;BME280_humidity;BME280_pressure;Samples;Min_cycle;Max_cycle;Signal;HPM_P1;HPM_P2
2023/05/29 00:00:07;;;;;;;9.82;4.93;;;16.10;81.10;;;;;;4888676;29;20041;-72
2023/05/29 05:01:33;;;;;;;11.60;4.63;;;13.90;92.70;;;;;;5810051;23;20031;-70
2023/05/29 05:04:00;;;;;;;11.43;4.50;;;14.00;92.70;;;;;;4882283;29;20218;-70
2023/05/29 05:06:26;;;;;;;9.55;4.75;;;14.00;92.70;;;;;;4879439;29;20255;-70
2023/05/29 05:08:52;;;;;;;9.63;4.68;;;14.10;92.80;;;;;;4872246;29;20041;-70
2023/05/29 05:11:20;;;;;;;7.38;4.05;;;14.20;93.20;;;;;;4888081;29;20032;-70
2023/05/29 05:13:46;;;;;;;12.48;5.28;;;14.30;93.10;;;;;;4890338;29;20024;-70
2023/05/29 05:16:12;;;;;;;11.98;5.68;;;14.40;93.20;;;;;;4890848;29;20325;-71
2023/05/29 05:18:39;;;;;;;9.45;4.60;;;14.40;93.00;;;;;;4883287;29;20029;-69
2023/05/29 05:21:07;;;;;;;8.68;4.60;;;14.50;92.90;;;;;;4872302;29;20033;-70
2023/05/29 05:23:34;;;;;;;9.85;4.50;;;14.60;92.60;;;;;;4888028;29;20318;-70
2023/05/29 05:26:01;;;;;;;10.55;5.00;;;14.70;92.60;;;;;;4872224;29;20036;-70
2023/05/29 05:28:26;;;;;;;7.95;4.15;;;14.70;92.50;;;;;;4871737;29;20017;-70
2023/05/29 05:30:52;;;;;;;8.45;4.47;;;14.80;91.80;;;;;;4890143;29;20259;-69
2023/05/29 05:33:18;;;;;;;9.13;4.70;;;14.90;91.10;;;;;;4875722;29;20040;-71
2023/05/29 05:35:44;;;;;;;8.48;4.43;;;14.90;90.80;;;;;;4898561;29;20195;-70
2023/05/29 05:38:11;;;;;;;9.68;4.32;;;15.00;90.40;;;;;;4894430;29;20076;-71
2023/05/29 05:40:37;;;;;;;8.38;4.63;;;15.10;90.20;;;;;;4910338;29;20037;-70
2023/05/29 05:43:12;;;;;;;9.80;4.60;;;15.10;90.50;;;;;;4894193;29;20044;-70
2023/05/29 05:46:03;;;;;;;8.85;4.70;;;15.20;90.60;;;;;;4910750;29;20107;-69
2023/05/29 05:48:30;;;;;;;8.73;4.05;;;15.20;90.40;;;;;;4895515;29;20254;-69
2023/05/29 05:50:56;;;;;;;10.23;4.60;;;15.30;90.40;;;;;;4894780;29;20104;-70
2023/05/29 05:53:22;;;;;;;7.30;4.25;;;15.40;89.90;;;;;;4895507;29;20033;-70
2023/05/29 05:55:48;;;;;;;7.35;4.10;;;15.40;90.10;;;;;;4877767;29;20237;-70
2023/05/29 05:58:14;;;;;;;11.02;3.92;;;15.50;90.00;;;;;;4893946;29;20036;-70
2023/05/29 06:00:42;;;;;;;6.32;3.47;;;15.70;89.60;;;;;;4893460;29;20065;-70
2023/05/29 06:03:08;;;;;;;8.65;4.38;;;15.80;89.50;;;;;;4871536;29;20071;-70
2023/05/29 06:05:48;;;;;;;7.68;4.63;;;16.00;89.40;;;;;;4874889;29;20033;-71
2023/05/29 06:08:15;;;;;;;9.57;4.88;;;16.10;88.30;;;;;;4875030;29;20037;-70
2023/05/29 06:10:41;;;;;;;8.63;4.78;;;16.20;87.60;;;;;;4874494;29;20040;-71
2023/05/29 06:13:06;;;;;;;8.02;4.57;;;16.20;87.60;;;;;;4891326;29;20033;-71
2023/05/29 06:15:43;;;;;;;8.63;4.45;;;16.20;88.30;;;;;;4874319;29;20040;-71
2023/05/29 06:18:08;;;;;;;8.18;4.05;;;16.40;88.20;;;;;;4874826;29;20021;-73
2023/05/29 06:20:35;;;;;;;7.55;4.15;;;16.50;87.40;;;;;;4873972;29;20040;-71
2023/05/29 06:23:01;;;;;;;7.97;4.00;;;16.60;87.20;;;;;;4875095;29;20069;-71
2023/05/29 06:25:32;;;;;;;8.25;4.22;;;16.80;86.70;;;;;;4891179;29;20338;-70
2023/05/29 06:28:02;;;;;;;7.35;4.07;;;16.90;86.10;;;;;;4874745;29;20039;-71
2023/05/29 06:30:28;;;;;;;10.43;4.35;;;17.00;85.10;;;;;;4859295;29;20037;-71
2023/05/29 06:32:54;;;;;;;9.48;4.15;;;17.10;83.40;;;;;;4874559;29;20303;-72
2023/05/29 06:35:26;;;;;;;9.68;4.55;;;17.20;83.60;;;;;;4874751;29;20178;-71
2023/05/29 06:37:53;;;;;;;7.20;4.10;;;17.20;83.20;;;;;;4885393;29;20329;-72
2023/05/29 06:40:20;;;;;;;7.00;3.85;;;17.20;83.40;;;;;;4892803;29;20024;-73
2023/05/29 06:42:45;;;;;;;6.32;3.70;;;17.20;83.20;;;;;;4891401;29;20104;-73
2023/05/29 06:45:14;;;;;;;;;;;17.20;83.40;;;;;;4910265;29;20063;-71
2023/05/29 06:47:44;;;;;;;7.35;3.75;;;17.20;83.40;;;;;;4892428;29;20185;-72
2023/05/29 06:50:10;;;;;;;10.55;3.95;;;17.40;83.00;;;;;;4893132;29;20037;-71
2023/05/29 06:52:37;;;;;;;6.53;3.72;;;17.60;82.50;;;;;;4892453;29;20107;-71
2023/05/29 06:55:22;;;;;;;8.23;3.65;;;17.80;82.50;;;;;;4909342;29;20057;-71
2023/05/29 06:57:47;;;;;;;6.75;3.67;;;17.90;80.90;;;;;;4909244;29;20036;-71
2023/05/29 07:00:14;;;;;;;10.18;4.07;;;18.00;81.10;;;;;;4893264;29;20144;-72
2023/05/29 07:02:47;;;;;;;9.15;4.10;;;18.10;81.30;;;;;;4891890;29;20274;-70
2023/05/29 07:05:12;;;;;;;7.03;4.10;;;18.30;82.30;;;;;;4877488;29;20080;-71
2023/05/29 07:07:38;;;;;;;7.32;3.85;;;18.40;82.80;;;;;;4873542;29;20064;-71
2023/05/29 07:10:05;;;;;;;8.23;4.28;;;18.50;82.50;;;;;;4873833;29;20037;-73
2023/05/29 07:12:31;;;;;;;8.02;4.20;;;18.50;82.80;;;;;;4890052;29;20048;-71
2023/05/29 07:14:57;;;;;;;6.75;3.70;;;18.70;82.50;;;;;;4858614;29;20041;-71
2023/05/29 07:17:23;;;;;;;9.30;4.38;;;18.80;82.20;;;;;;4873994;29;20031;-70
2023/05/29 07:20:00;;;;;;;8.73;3.75;;;19.00;82.00;;;;;;4874055;29;20330;-72
2023/05/29 07:22:26;;;;;;;6.43;3.63;;;19.10;82.00;;;;;;4890346;29;20021;-73
2023/05/29 07:24:52;;;;;;;8.10;3.38;;;19.20;80.40;;;;;;4889610;29;20040;-70
2023/05/29 07:27:18;;;;;;;8.02;3.63;;;19.30;78.60;;;;;;4873819;29;20081;-72
2023/05/29 07:29:43;;;;;;;6.63;3.33;;;19.40;77.20;;;;;;4873169;29;20303;-73
2023/05/29 07:32:10;;;;;;;7.53;3.88;;;19.40;76.90;;;;;;4873727;29;20025;-74
2023/05/29 07:34:36;;;;;;;8.30;3.70;;;19.30;76.70;;;;;;4873673;29;20094;-74
2023/05/29 07:37:06;;;;;;;5.63;2.85;;;19.50;77.40;;;;;;4873729;29;20021;-72
2023/05/29 07:39:34;;;;;;;7.63;3.75;;;19.50;76.90;;;;;;4872838;29;20351;-72
2023/05/29 07:42:06;;;;;;;6.65;3.50;;;19.60;76.20;;;;;;4873670;29;20051;-72
2023/05/29 07:44:32;;;;;;;6.13;3.55;;;19.60;75.70;;;;;;4858005;29;20053;-73
2023/05/29 07:46:58;;;;;;;7.65;3.50;;;19.70;74.80;;;;;;4872977;29;20025;-72
2023/05/29 07:49:45;;;;;;;10.02;4.28;;;19.70;74.40;;;;;;4872892;29;20041;-71
2023/05/29 07:52:11;;;;;;;6.95;3.38;;;19.80;75.00;;;;;;4873201;29;20255;-70
2023/05/29 07:54:37;;;;;;;6.70;3.63;;;19.90;74.40;;;;;;4872522;29;20207;-72
2023/05/29 07:57:09;;;;;;;7.57;3.50;;;19.90;74.00;;;;;;4873356;29;20176;-72
2023/05/29 07:59:37;;;;;;;7.65;3.15;;;20.10;73.50;;;;;;4872807;29;20032;-72
2023/05/29 08:02:04;;;;;;;8.38;3.53;;;20.10;74.30;;;;;;4872716;29;20067;-70
2023/05/29 08:04:49;;;;;;;8.88;3.42;;;20.30;73.80;;;;;;4889046;29;20040;-71
2023/05/29 08:07:15;;;;;;;6.03;3.72;;;20.30;72.90;;;;;;4872941;29;20041;-71
2023/05/29 08:09:40;;;;;;;5.22;3.20;;;20.30;73.00;;;;;;4889097;29;20025;-71
2023/05/29 08:12:06;;;;;;;7.40;3.22;;;20.40;72.60;;;;;;4889830;29;20048;-70
2023/05/29 08:14:32;;;;;;;6.57;3.63;;;20.40;73.40;;;;;;4868311;29;20112;-70
2023/05/29 08:17:01;;;;;;;6.00;3.30;;;20.60;72.60;;;;;;4869262;29;20049;-70
2023/05/29 08:19:26;;;;;;;8.95;3.60;;;20.80;72.20;;;;;;4885436;29;20219;-70
2023/05/29 08:21:52;;;;;;;7.53;3.88;;;20.80;73.40;;;;;;4887103;29;20123;-70
2023/05/29 08:24:18;;;;;;;6.82;3.83;;;20.90;72.50;;;;;;4901503;29;20323;-69
2023/05/29 08:26:44;;;;;;;7.75;3.80;;;21.00;71.90;;;;;;4888425;29;20089;-71
2023/05/29 08:29:10;;;;;;;6.20;3.42;;;21.00;71.80;;;;;;4889699;29;20045;-70
2023/05/29 08:31:37;;;;;;;7.75;3.80;;;21.00;72.20;;;;;;4894947;29;20069;-70
2023/05/29 08:34:02;;;;;;;6.45;2.88;;;21.00;72.40;;;;;;4853530;29;20354;-70
2023/05/29 08:36:28;;;;;;;8.30;3.47;;;21.20;72.40;;;;;;4888727;29;20029;-70
2023/05/29 08:38:54;;;;;;;9.13;3.53;;;21.20;72.50;;;;;;4905421;29;20056;-70
2023/05/29 08:41:39;;;;;;;6.88;3.47;;;21.30;72.80;;;;;;4888099;29;20033;-70
2023/05/29 08:44:07;;;;;;;8.35;3.50;;;21.40;71.80;;;;;;4892539;29;20044;-71
2023/05/29 08:46:34;;;;;;;8.40;3.70;;;21.40;71.80;;;;;;4889244;29;20128;-68
2023/05/29 08:49:02;;;;;;;6.88;3.47;;;21.40;71.80;;;;;;4887642;29;20225;-68
2023/05/29 08:51:32;;;;;;;8.57;3.40;;;21.50;72.40;;;;;;4908047;29;20060;-68
2023/05/29 08:53:58;;;;;;;8.48;4.15;;;21.60;72.20;;;;;;4890772;29;20366;-69
2023/05/29 08:56:24;;;;;;;6.68;3.25;;;21.70;72.70;;;;;;4896381;29;20250;-69
2023/05/29 08:58:50;;;;;;;7.90;3.90;;;21.80;72.60;;;;;;4906807;29;20040;-71
2023/05/29 09:01:17;;;;;;;8.00;3.65;;;21.80;72.00;;;;;;4907525;29;20052;-69
2023/05/29 09:03:43;;;;;;;7.45;4.03;;;21.80;72.70;;;;;;4856268;29;20077;-69
2023/05/29 09:06:09;;;;;;;7.25;3.60;;;22.00;72.30;;;;;;4873910;29;20037;-68
2023/05/29 09:08:36;;;;;;;7.57;4.07;;;22.20;72.50;;;;;;4871814;29;20059;-72
2023/05/29 09:11:02;;;;;;;6.53;3.70;;;22.10;71.90;;;;;;4867734;29;20087;-70
2023/05/29 09:13:28;;;;;;;5.28;3.50;;;22.30;72.50;;;;;;4872135;29;20044;-69
2023/05/29 09:16:02;;;;;;;7.47;3.58;;;22.30;72.20;;;;;;4890933;29;20108;-72
2023/05/29 09:18:32;;;;;;;5.68;3.25;;;22.40;71.80;;;;;;4863506;29;20152;-71
2023/05/29 09:20:58;;;;;;;8.30;3.53;;;22.50;70.50;;;;;;4883605;29;20337;-70
2023/05/29 09:23:26;;;;;;;6.07;3.25;;;22.50;71.20;;;;;;4888178;29;20115;-70
2023/05/29 09:25:53;;;;;;;6.32;3.20;;;22.50;70.60;;;;;;4886348;29;20306;-70
2023/05/29 09:28:28;;;;;;;6.27;3.47;;;22.80;70.30;;;;;;4892089;29;20029;-70
2023/05/29 09:30:53;;;;;;;7.55;3.55;;;22.90;70.10;;;;;;4880428;29;20057;-71
2023/05/29 09:33:19;;;;;;;7.60;3.38;;;23.00;69.50;;;;;;4884803;29;20330;-70
2023/05/29 09:35:49;;;;;;;6.53;3.40;;;23.10;70.00;;;;;;4891286;29;20048;-72
2023/05/29 09:38:19;;;;;;;7.38;3.35;;;23.20;69.20;;;;;;4892009;29;20045;-71
2023/05/29 09:40:46;;;;;;;8.07;3.75;;;23.20;68.90;;;;;;4890959;29;20041;-70
2023/05/29 09:43:13;;;;;;;6.88;3.53;;;23.30;69.80;;;;;;4892005;29;20041;-70
2023/05/29 09:45:40;;;;;;;5.53;3.05;;;23.50;68.50;;;;;;4891986;29;20040;-70
2023/05/29 09:48:22;;;;;;;8.45;3.85;;;23.70;68.60;;;;;;4891381;29;20112;-71
2023/05/29 09:50:48;;;;;;;9.63;3.60;;;23.80;67.80;;;;;;4883363;29;20093;-70
2023/05/29 09:53:23;;;;;;;8.90;3.83;;;23.80;66.70;;;;;;4886856;29;20088;-70
2023/05/29 09:55:50;;;;;;;8.23;3.67;;;23.80;66.70;;;;;;4891168;29;20053;-72
2023/05/29 09:58:19;;;;;;;6.13;3.50;;;23.90;67.20;;;;;;4891568;29;20032;-74
2023/05/29 10:00:47;;;;;;;6.40;3.35;;;24.00;66.90;;;;;;4890924;29;20029;-70
2023/05/29 10:03:13;;;;;;;5.70;3.20;;;24.00;66.90;;;;;;4883075;29;20056;-70
2023/05/29 10:05:43;;;;;;;5.85;2.95;;;24.10;66.80;;;;;;4890864;29;20216;-73
2023/05/29 10:08:13;;;;;;;7.80;3.25;;;24.20;66.40;;;;;;4887731;29;20033;-72
2023/05/29 10:10:43;;;;;;;6.53;3.22;;;24.30;64.60;;;;;;4891428;29;20033;-71
2023/05/29 10:13:11;;;;;;;5.82;3.00;;;24.40;64.90;;;;;;4891510;29;20065;-71
2023/05/29 10:15:40;;;;;;;7.50;3.10;;;24.50;65.20;;;;;;4891161;29;20041;-70
2023/05/29 10:18:13;;;;;;;7.03;3.50;;;24.70;66.00;;;;;;4890905;29;20069;-72
2023/05/29 10:20:41;;;;;;;5.85;3.20;;;24.90;63.90;;;;;;4891074;29;20064;-71
2023/05/29 10:23:09;;;;;;;5.55;2.90;;;24.90;62.50;;;;;;4887285;29;20037;-71
2023/05/29 10:25:36;;;;;;;5.85;2.70;;;25.00;60.60;;;;;;4890694;29;20040;-72
2023/05/29 10:28:02;;;;;;;11.48;3.63;;;25.10;61.20;;;;;;4887317;29;20029;-73
2023/05/29 10:31:07;;;;;;;7.43;3.42;;;25.30;59.80;;;;;;4897416;29;20039;-72
2023/05/29 10:33:50;;;;;;;7.60;3.10;;;25.50;59.80;;;;;;4885213;29;20037;-70
2023/05/29 10:36:21;;;;;;;7.13;2.95;;;25.60;59.30;;;;;;4898057;29;20037;-70
2023/05/29 10:38:48;;;;;;;6.22;2.55;;;25.50;59.20;;;;;;4893411;29;20040;-71
2023/05/29 10:41:26;;;;;;;7.03;3.17;;;25.50;58.80;;;;;;4888282;29;20032;-71
2023/05/29 10:43:59;;;;;;;7.28;3.40;;;25.60;59.00;;;;;;4890002;29;20095;-71
2023/05/29 10:46:47;;;;;;;5.63;2.90;;;25.60;58.80;;;;;;4882288;29;20041;-71
2023/05/29 10:49:20;;;;;;;7.05;3.22;;;25.60;58.20;;;;;;4890686;29;20037;-71
2023/05/29 10:51:46;;;;;;;5.60;3.20;;;25.70;58.40;;;;;;4900532;29;20056;-72
2023/05/29 10:54:16;;;;;;;5.18;3.08;;;25.80;57.30;;;;;;4890571;29;20056;-70
2023/05/29 10:56:45;;;;;;;6.00;3.03;;;26.00;57.80;;;;;;4890102;29;20052;-71
2023/05/29 10:59:10;;;;;;;;;;;26.10;58.00;;;;;;4891035;29;20334;-71
2023/05/29 11:01:39;;;;;;;5.68;2.90;;;26.10;57.30;;;;;;4897633;29;19907;-71
2023/05/29 11:04:26;;;;;;;7.20;2.80;;;26.30;57.00;;;;;;4909165;29;20218;-71
2023/05/29 11:06:52;;;;;;;6.03;2.90;;;26.30;57.10;;;;;;4908244;29;20088;-72
2023/05/29 11:09:37;;;;;;;5.93;2.80;;;26.20;57.40;;;;;;4906180;29;20354;-71
2023/05/29 11:12:35;;;;;;;6.40;2.65;;;26.30;58.10;;;;;;4883853;29;20112;-69
2023/05/29 11:15:10;;;;;;;5.20;2.72;;;26.50;57.40;;;;;;4900777;29;20103;-69
2023/05/29 11:17:39;;;;;;;5.90;2.60;;;26.80;56.20;;;;;;4888834;29;20080;-72
2023/05/29 11:20:07;;;;;;;5.05;2.40;;;26.90;56.20;;;;;;4904056;29;20040;-72
2023/05/29 11:22:42;;;;;;;;;;;26.90;56.10;;;;;;4909320;29;20353;-70
2023/05/29 11:25:07;;;;;;;5.72;2.88;;;27.20;56.10;;;;;;4908692;29;19908;-69
2023/05/29 11:27:34;;;;;;;7.40;2.42;;;27.40;54.80;;;;;;4908541;29;20028;-71
2023/05/29 11:30:00;;;;;;;5.80;2.80;;;27.40;54.70;;;;;;4913113;29;20067;-70
2023/05/29 11:32:29;;;;;;;6.25;2.45;;;27.80;55.20;;;;;;4892000;29;20036;-71
2023/05/29 11:34:59;;;;;;;4.88;2.83;;;28.00;54.20;;;;;;4908021;29;20040;-71
2023/05/29 11:37:25;;;;;;;4.78;2.50;;;28.40;53.20;;;;;;4907998;29;20035;-72
2023/05/29 11:39:51;;;;;;;4.85;2.63;;;28.90;52.60;;;;;;4905282;29;20036;-72
2023/05/29 11:42:17;;;;;;;6.38;3.00;;;29.50;52.30;;;;;;4908555;29;20270;-70
2023/05/29 11:44:42;;;;;;;6.75;2.47;;;30.30;51.50;;;;;;4907904;29;20111;-71
2023/05/29 11:47:08;;;;;;;6.05;2.45;;;30.70;50.30;;;;;;4907688;29;20039;-69
2023/05/29 11:49:37;;;;;;;6.47;2.80;;;31.20;50.10;;;;;;4908149;29;20271;-70
2023/05/29 11:52:07;;;;;;;4.50;2.40;;;31.80;48.90;;;;;;4887673;29;20084;-71
2023/05/29 11:54:34;;;;;;;6.07;2.65;;;32.40;47.10;;;;;;4903669;29;20044;-72
2023/05/29 11:57:02;;;;;;;4.07;2.17;;;33.40;46.80;;;;;;4907490;29;20378;-71
2023/05/29 11:59:31;;;;;;;5.40;2.70;;;34.00;45.80;;;;;;4907918;29;20072;-71
2023/05/29 12:01:56;;;;;;;5.95;2.85;;;34.70;45.50;;;;;;4906967;29;20152;-71
2023/05/29 12:04:22;;;;;;;6.93;2.20;;;34.60;45.00;;;;;;4915863;29;20032;-70
2023/05/29 12:06:48;;;;;;;4.53;2.35;;;35.10;45.60;;;;;;4906937;29;20039;-70
2023/05/29 12:09:27;;;;;;;6.47;2.53;;;35.60;44.20;;;;;;4906925;29;20033;-70
2023/05/29 12:11:54;;;;;;;7.18;2.42;;;36.10;43.80;;;;;;4907215;29;20140;-70
2023/05/29 12:14:20;;;;;;;4.75;2.47;;;36.60;43.20;;;;;;4907685;29;20084;-71
2023/05/29 12:16:46;;;;;;;3.95;2.20;;;36.10;43.80;;;;;;4906914;29;20096;-70
2023/05/29 12:19:12;;;;;;;3.75;2.30;;;35.90;43.60;;;;;;4907466;29;20100;-71
2023/05/29 12:21:42;;;;;;;7.35;2.80;;;36.10;43.00;;;;;;4907334;29;20045;-72
2023/05/29 12:24:08;;;;;;;6.47;2.30;;;36.00;42.20;;;;;;4906943;29;20051;-71
2023/05/29 12:26:35;;;;;;;3.30;2.17;;;35.20;43.40;;;;;;4907304;29;20064;-73
2023/05/29 12:29:04;;;;;;;4.75;2.17;;;36.20;42.60;;;;;;4906793;29;20222;-71
2023/05/29 12:31:31;;;;;;;4.20;2.30;;;36.90;42.60;;;;;;4907232;29;20024;-71
2023/05/29 12:34:09;;;;;;;4.70;2.10;;;37.80;41.40;;;;;;4906899;29;20092;-72
2023/05/29 12:36:34;;;;;;;6.43;2.03;;;38.40;41.30;;;;;;4907332;29;20330;-72
2023/05/29 12:39:08;;;;;;;3.22;1.98;;;38.20;40.40;;;;;;4906675;29;20043;-71
2023/05/29 12:41:34;;;;;;;4.85;2.20;;;38.80;41.00;;;;;;4907235;29;20310;-69
2023/05/29 12:44:03;;;;;;;4.15;2.33;;;39.70;40.60;;;;;;4906648;29;20301;-70
2023/05/29 12:46:36;;;;;;;3.00;2.17;;;40.10;40.00;;;;;;4907374;29;20037;-71
2023/05/29 12:49:13;;;;;;;3.83;2.47;;;40.30;38.60;;;;;;4906838;29;20096;-72
2023/05/29 12:51:42;;;;;;;4.13;2.58;;;40.80;37.90;;;;;;4907181;29;20044;-71
2023/05/29 12:54:07;;;;;;;3.40;2.08;;;41.00;37.10;;;;;;4906505;29;20240;-73
2023/05/29 12:56:33;;;;;;;4.22;2.20;;;40.90;37.20;;;;;;4907294;29;20039;-72
2023/05/29 12:58:59;;;;;;;4.57;2.17;;;40.60;37.40;;;;;;4886897;29;20040;-70
2023/05/29 13:01:24;;;;;;;5.45;1.95;;;39.60;38.90;;;;;;4903397;29;20040;-70
2023/05/29 13:03:50;;;;;;;4.95;2.10;;;40.20;38.10;;;;;;4910970;29;20055;-70
2023/05/29 13:06:15;;;;;;;4.35;2.20;;;40.60;38.30;;;;;;4911693;29;20056;-71
2023/05/29 13:08:42;;;;;;;4.15;2.42;;;40.50;38.30;;;;;;4906562;29;20037;-73
2023/05/29 13:11:08;;;;;;;18.48;3.45;;;40.60;37.80;;;;;;4907143;29;20142;-71
2023/05/29 13:13:34;;;;;;;5.25;2.30;;;40.40;37.80;;;;;;4890617;29;20063;-72
2023/05/29 13:15:59;;;;;;;3.78;2.63;;;39.70;37.70;;;;;;4906866;29;20059;-73
2023/05/29 13:18:25;;;;;;;3.88;2.88;;;39.10;37.90;;;;;;4907088;29;20318;-71
2023/05/29 13:20:51;;;;;;;4.25;2.58;;;38.60;38.30;;;;;;4906379;29;20048;-71
2023/05/29 13:23:16;;;;;;;5.55;2.40;;;38.30;38.50;;;;;;4907064;29;20095;-71
2023/05/29 13:25:42;;;;;;;4.03;2.17;;;38.50;38.80;;;;;;4907158;29;20064;-72
2023/05/29 13:28:08;;;;;;;3.55;2.20;;;39.00;37.60;;;;;;4906553;29;20199;-72
2023/05/29 13:30:34;;;;;;;3.95;2.30;;;40.20;37.40;;;;;;4907156;29;20044;-72
2023/05/29 13:32:59;;;;;;;4.88;2.20;;;40.90;37.20;;;;;;4906174;29;20041;-72
2023/05/29 13:35:26;;;;;;;3.78;2.47;;;41.90;40.30;;;;;;4906961;29;20040;-73
2023/05/29 13:37:51;;;;;;;4.25;2.50;;;41.30;37.40;;;;;;4906632;29;20044;-72
2023/05/29 13:40:17;;;;;;;3.72;2.03;;;42.30;40.90;;;;;;4906886;29;20040;-72
2023/05/29 13:42:43;;;;;;;3.60;2.20;;;41.50;36.40;;;;;;4907223;29;20214;-72
2023/05/29 13:45:09;;;;;;;3.75;2.20;;;41.70;36.80;;;;;;4919054;29;20234;-71
2023/05/29 13:47:35;;;;;;;4.85;2.45;;;41.10;37.20;;;;;;4907228;29;20040;-71
2023/05/29 13:50:01;;;;;;;3.07;2.20;;;40.70;37.60;;;;;;4886475;29;20033;-71
2023/05/29 13:52:27;;;;;;;3.80;2.05;;;41.20;37.90;;;;;;4901266;29;20048;-70
2023/05/29 13:54:53;;;;;;;4.20;2.10;;;41.90;37.10;;;;;;4909840;29;20040;-72
2023/05/29 13:57:19;;;;;;;3.75;2.20;;;41.80;36.90;;;;;;4910475;29;20160;-70
2023/05/29 13:59:44;;;;;;;6.95;2.50;;;42.00;36.80;;;;;;4910112;29;20021;-72
2023/05/29 14:02:11;;;;;;;5.05;2.20;;;42.40;36.70;;;;;;4909536;29;20263;-72
2023/05/29 14:04:38;;;;;;;4.82;2.30;;;42.80;36.50;;;;;;4918408;29;20051;-72
2023/05/29 14:07:04;;;;;;;3.80;2.08;;;42.80;36.30;;;;;;4909747;29;20040;-69
2023/05/29 14:09:30;;;;;;;4.28;2.30;;;43.50;39.90;;;;;;4908922;29;20378;-70
2023/05/29 14:11:57;;;;;;;2.60;1.95;;;44.10;37.60;;;;;;4889267;29;20058;-70
2023/05/29 14:14:24;;;;;;;5.00;2.30;;;44.10;39.30;;;;;;4903781;29;20045;-72
2023/05/29 14:16:51;;;;;;;4.80;2.35;;;43.60;38.80;;;;;;4909320;29;20072;-72
2023/05/29 14:19:17;;;;;;;;;;;43.90;38.50;;;;;;4910287;29;20068;-73
2023/05/29 14:21:43;;;;;;;4.23;2.23;;;43.70;39.00;;;;;;4909919;29;19907;-73
2023/05/29 14:24:09;;;;;;;3.03;2.00;;;42.50;38.70;;;;;;4908845;29;20040;-73
2023/05/29 14:26:35;;;;;;;3.83;2.20;;;42.30;37.90;;;;;;4909970;29;20091;-72
2023/05/29 14:29:01;;;;;;;9.77;2.93;;;43.00;39.00;;;;;;4909151;29;20032;-72
2023/05/29 14:31:27;;;;;;;7.72;3.42;;;43.00;37.40;;;;;;4909674;29;20798;-72
2023/05/29 14:33:53;;;;;;;4.72;2.20;;;42.90;38.60;;;;;;4909272;29;20031;-73
2023/05/29 14:36:18;;;;;;;5.03;2.38;;;43.20;38.10;;;;;;4909416;29;20021;-73
2023/05/29 14:38:46;;;;;;;4.35;2.17;;;44.10;38.10;;;;;;4909272;29;20036;-71
2023/05/29 14:41:11;;;;;;;5.45;2.40;;;44.60;38.70;;;;;;4908624;29;20064;-72
2023/05/29 14:43:42;;;;;;;4.10;2.20;;;44.50;39.30;;;;;;4909451;29;20096;-72
2023/05/29 14:46:08;;;;;;;3.10;2.17;;;44.60;40.10;;;;;;4908522;29;20441;-73
2023/05/29 14:48:34;;;;;;;3.80;2.17;;;44.50;40.50;;;;;;4909463;29;20046;-73
2023/05/29 14:51:00;;;;;;;4.57;2.42;;;44.70;41.60;;;;;;4908539;29;20041;-71
2023/05/29 14:53:26;;;;;;;3.75;2.20;;;44.30;41.90;;;;;;4909349;29;20040;-71
2023/05/29 14:55:52;;;;;;;3.13;1.98;;;44.10;40.80;;;;;;4908804;29;20192;-73
2023/05/29 14:58:18;;;;;;;3.47;2.08;;;44.70;39.60;;;;;;4889363;29;20029;-72
2023/05/29 15:00:44;;;;;;;4.00;2.08;;;44.10;39.40;;;;;;4899612;29;20239;-72
2023/05/29 15:03:09;;;;;;;3.92;2.20;;;43.40;40.00;;;;;;4894265;29;20285;-71
2023/05/29 15:05:36;;;;;;;2.95;1.90;;;43.20;40.20;;;;;;4921027;29;20072;-71
2023/05/29 15:08:02;;;;;;;4.60;2.33;;;42.70;41.00;;;;;;4907424;29;20029;-72
2023/05/29 15:10:28;;;;;;;3.17;2.10;;;;;;;;;;4908753;29;20055;-72
2023/05/29 15:12:57;;;;;;;4.03;2.50;;;43.00;35.50;;;;;;4908149;29;20080;-72
2023/05/29 15:15:25;;;;;;;4.10;2.00;;;43.10;36.50;;;;;;4908785;29;20076;-72
2023/05/29 15:17:55;;;;;;;4.10;2.45;;;42.40;36.70;;;;;;4908407;29;20029;-72
2023/05/29 15:20:22;;;;;;;3.90;2.10;;;42.60;38.00;;;;;;4908661;29;20040;-72
2023/05/29 15:22:48;;;;;;;3.65;1.90;;;42.70;39.70;;;;;;4908793;29;20037;-72
2023/05/29 15:25:15;;;;;;;3.80;2.10;;;42.90;38.80;;;;;;4908460;29;20032;-72
2023/05/29 15:27:41;;;;;;;5.05;2.10;;;42.90;39.70;;;;;;4908807;29;20029;-73
2023/05/29 15:30:12;;;;;;;4.93;2.13;;;43.60;38.60;;;;;;4908181;29;20213;-72
2023/05/29 15:32:42;;;;;;;8.10;2.05;;;43.70;39.20;;;;;;4908425;29;20043;-71
2023/05/29 15:35:09;;;;;;;4.65;2.03;;;43.30;38.40;;;;;;4907618;29;20044;-72
2023/05/29 15:37:35;;;;;;;3.90;2.00;;;42.60;36.80;;;;;;4908227;29;20144;-72
2023/05/29 15:40:01;;;;;;;3.33;2.00;;;42.70;37.20;;;;;;4907981;29;20029;-71
2023/05/29 15:42:27;;;;;;;4.53;2.13;;;43.00;37.10;;;;;;4908592;29;20095;-70
2023/05/29 15:44:52;;;;;;;3.17;2.10;;;42.00;36.90;;;;;;4890812;29;20051;-71
2023/05/29 15:47:18;;;;;;;4.20;2.38;;;42.20;37.10;;;;;;4908062;29;20029;-72
2023/05/29 15:49:44;;;;;;;3.35;2.20;;;42.40;37.10;;;;;;4908171;29;20044;-73
2023/05/29 15:52:09;;;;;;;4.25;2.10;;;43.10;36.60;;;;;;4907645;29;20056;-71
2023/05/29 15:54:35;;;;;;;2.65;1.75;;;42.40;36.40;;;;;;4907916;29;20103;-70
2023/05/29 15:57:02;;;;;;;4.22;1.92;;;42.20;36.90;;;;;;4907703;29;20040;-71
2023/05/29 15:59:31;;;;;;;3.13;1.92;;;42.10;37.50;;;;;;4891530;29;20029;-73
2023/05/29 16:01:58;;;;;;;2.85;1.85;;;42.20;36.80;;;;;;4907228;29;20041;-71
2023/05/29 16:04:23;;;;;;;3.88;1.92;;;42.10;37.40;;;;;;4911798;29;20317;-72
2023/05/29 16:06:49;;;;;;;4.93;2.00;;;41.70;37.70;;;;;;4882565;29;20035;-73
2023/05/29 16:09:16;;;;;;;3.67;1.70;;;41.40;37.00;;;;;;4907113;29;20017;-73
2023/05/29 16:11:41;;;;;;;5.03;2.67;;;41.10;37.00;;;;;;4909515;29;20314;-72
2023/05/29 16:14:07;;;;;;;3.05;1.83;;;40.70;37.50;;;;;;4891082;29;20047;-74
2023/05/29 16:16:33;;;;;;;4.13;2.20;;;40.60;37.30;;;;;;4905308;29;20137;-74
2023/05/29 16:19:00;;;;;;;7.38;1.83;;;40.80;37.20;;;;;;4907488;29;20243;-71
2023/05/29 16:21:26;;;;;;;2.95;2.33;;;40.20;38.70;;;;;;4900684;29;20028;-72
2023/05/29 16:23:57;;;;;;;3.15;2.20;;;39.50;38.20;;;;;;4887321;29;20084;-73
2023/05/29 16:26:26;;;;;;;4.07;2.25;;;40.00;39.50;;;;;;4903565;29;20048;-71
2023/05/29 16:28:55;;;;;;;3.33;1.60;;;40.50;37.60;;;;;;4907651;29;20033;-73
2023/05/29 16:31:21;;;;;;;4.85;1.90;;;40.60;37.40;;;;;;4890232;29;20031;-72
2023/05/29 16:33:47;;;;;;;2.90;2.00;;;40.80;37.20;;;;;;4907968;29;20079;-73
2023/05/29 16:36:12;;;;;;;4.28;2.15;;;40.20;37.50;;;;;;4890511;29;20103;-71
2023/05/29 16:38:38;;;;;;;4.50;1.88;;;40.50;38.20;;;;;;4914999;29;20024;-70
2023/05/29 16:41:04;;;;;;;3.08;1.90;;;40.40;38.20;;;;;;4904386;29;20039;-71
2023/05/29 16:43:31;;;;;;;4.30;2.20;;;39.40;38.20;;;;;;4909204;29;20293;-73
2023/05/29 16:45:58;;;;;;;3.80;2.00;;;38.70;38.70;;;;;;4902835;29;20046;-71
2023/05/29 16:48:23;;;;;;;3.25;2.20;;;38.00;38.40;;;;;;4891779;29;20092;-72
2023/05/29 16:50:50;;;;;;;4.35;2.13;;;37.30;38.50;;;;;;4917511;29;20322;-72
2023/05/29 16:53:16;;;;;;;3.47;2.00;;;37.40;38.70;;;;;;4909759;29;20078;-70
2023/05/29 16:55:41;;;;;;;4.78;2.67;;;36.80;39.00;;;;;;4907435;29;20048;-71
2023/05/29 16:58:07;;;;;;;5.13;2.45;;;36.80;39.60;;;;;;4906981;29;20088;-71
2023/05/29 17:00:33;;;;;;;4.00;2.35;;;37.20;39.50;;;;;;4917558;29;20060;-72
2023/05/29 17:02:58;;;;;;;3.78;1.92;;;37.50;38.60;;;;;;4906632;29;20048;-72
2023/05/29 17:05:24;;;;;;;4.05;2.65;;;38.30;38.90;;;;;;4917456;29;20263;-72
2023/05/29 17:07:50;;;;;;;4.07;2.10;;;38.50;38.40;;;;;;4907037;29;20032;-69
2023/05/29 17:10:17;;;;;;;3.30;1.80;;;38.50;38.40;;;;;;4906795;29;20116;-71
2023/05/29 17:12:44;;;;;;;4.07;1.95;;;38.30;39.60;;;;;;4907565;29;20060;-72
2023/05/29 17:15:10;;;;;;;3.00;1.77;;;38.00;39.40;;;;;;4906892;29;20207;-71
2023/05/29 17:17:36;;;;;;;3.38;2.20;;;37.90;40.40;;;;;;4914685;29;20153;-73
2023/05/29 17:20:03;;;;;;;3.88;2.30;;;37.60;40.40;;;;;;4887053;29;20323;-71
2023/05/29 17:22:29;;;;;;;5.22;2.00;;;36.90;39.30;;;;;;4898945;29;20084;-71
2023/05/29 17:24:56;;;;;;;4.18;2.10;;;37.20;39.00;;;;;;4906881;29;20036;-73
2023/05/29 17:27:22;;;;;;;3.88;2.25;;;37.50;39.10;;;;;;4889940;29;20243;-72
2023/05/29 17:29:48;;;;;;;3.08;2.30;;;37.50;39.00;;;;;;4908078;29;20033;-71
2023/05/29 17:32:13;;;;;;;5.38;2.20;;;37.50;38.80;;;;;;4910123;29;20040;-70
2023/05/29 17:34:39;;;;;;;5.78;2.30;;;37.90;39.30;;;;;;4909896;29;20084;-70
2023/05/29 17:37:08;;;;;;;3.88;2.42;;;37.40;39.20;;;;;;4910307;29;20219;-71
2023/05/29 17:39:34;;;;;;;4.68;2.33;;;37.00;39.20;;;;;;4910678;29;20040;-72
2023/05/29 17:42:00;;;;;;;3.58;2.25;;;35.90;39.90;;;;;;4902321;29;20135;-73
2023/05/29 17:44:25;;;;;;;4.28;2.10;;;35.40;40.60;;;;;;4910657;29;20103;-71
2023/05/29 17:46:51;;;;;;;6.10;3.03;;;34.80;41.00;;;;;;4910824;29;20257;-71
2023/05/29 17:49:17;;;;;;;5.28;2.42;;;35.20;41.30;;;;;;4910030;29;20319;-72